sensor_id;sensor_type;location;lat;lon;timestamp;temperature;humidity
2030;DHT22;1020;48.854;8.830;2023-06-10T00:00:02;16.90;99.90
2030;DHT22;1020;48.854;8.830;2023-06-10T00:02:30;16.90;99.90
2030;DHT22;1020;48.854;8.830;2023-06-10T00:04:58;16.90;99.90
2030;DHT22;1020;48.854;8.830;2023-06-10T00:07:25;16.80;1.00
2030;DHT22;1020;48.854;8.830;2023-06-10T00:09:52;16.60;1.00
2030;DHT22;1020;48.854;8.830;2023-06-10T00:12:19;16.50;1.00
2030;DHT22;1020;48.854;8.830;2023-06-10T00:14:46;16.40;1.00
2030;DHT22;1020;48.854;8.830;2023-06-10T00:17:15;16.40;1.00
2030;DHT22;1020;48.854;8.830;2023-06-10T00:19:42;16.40;1.00
2030;DHT22;1020;48.854;8.830;2023-06-10T00:22:10;16.40;1.00
2030;DHT22;1020;48.854;8.830;2023-06-10T00:24:37;15.60;1.00
2030;DHT22;1020;48.854;8.830;2023-06-10T00:27:05;16.40;1.00
2030;DHT22;1020;48.854;8.830;2023-06-10T00:29:32;16.40;1.00
2030;DHT22;1020;48.854;8.830;2023-06-10T00:31:59;16.40;1.00
2030;DHT22;1020;48.854;8.830;2023-06-10T00:34:25;16.40;1.00
2030;DHT22;1020;48.854;8.830;2023-06-10T00:36:52;16.40;1.00
2030;DHT22;1020;48.854;8.830;2023-06-10T00:39:20;16.40;1.00
2030;DHT22;1020;48.854;8.830;2023-06-10T00:41:47;16.40;1.00
2030;DHT22;1020;48.854;8.830;2023-06-10T00:44:14;16.30;1.00
2030;DHT22;1020;48.854;8.830;2023-06-10T00:46:40;16.30;1.00
2030;DHT22;1020;48.854;8.830;2023-06-10T00:49:07;16.20;1.00
2030;DHT22;1020;48.854;8.830;2023-06-10T00:51:35;16.10;1.00
2030;DHT22;1020;48.854;8.830;2023-06-10T00:54:02;16.10;1.00
2030;DHT22;1020;48.854;8.830;2023-06-10T00:56:31;16.00;1.00
2030;DHT22;1020;48.854;8.830;2023-06-10T00:59:00;16.00;1.00
2030;DHT22;1020;48.854;8.830;2023-06-10T01:01:27;16.00;1.00
2030;DHT22;1020;48.854;8.830;2023-06-10T01:03:54;16.00;1.00
2030;DHT22;1020;48.854;8.830;2023-06-10T01:06:32;16.00;1.00
2030;DHT22;1020;48.854;8.830;2023-06-10T01:09:09;16.00;1.00
2030;DHT22;1020;48.854;8.830;2023-06-10T01:11:47;16.00;1.00
2030;DHT22;1020;48.854;8.830;2023-06-10T01:14:15;15.90;1.00
2030;DHT22;1020;48.854;8.830;2023-06-10T01:16:43;15.90;1.00
2030;DHT22;1020;48.854;8.830;2023-06-10T01:19:11;15.90;1.00
2030;DHT22;1020;48.854;8.830;2023-06-10T01:21:41;15.90;1.00
2030;DHT22;1020;48.854;8.830;2023-06-10T01:24:14;15.80;1.00
2030;DHT22;1020;48.854;8.830;2023-06-10T01:26:45;15.80;1.00
2030;DHT22;1020;48.854;8.830;2023-06-10T01:29:18;15.70;1.00
2030;DHT22;1020;48.854;8.830;2023-06-10T01:31:50;15.70;1.00
2030;DHT22;1020;48.854;8.830;2023-06-10T01:34:19;15.70;1.00
2030;DHT22;1020;48.854;8.830;2023-06-10T01:36:49;15.60;1.00
2030;DHT22;1020;48.854;8.830;2023-06-10T01:39:19;15.60;1.00
2030;DHT22;1020;48.854;8.830;2023-06-10T01:41:47;15.60;1.00
2030;DHT22;1020;48.854;8.830;2023-06-10T01:44:17;15.60;1.00
2030;DHT22;1020;48.854;8.830;2023-06-10T01:46:45;15.50;1.00
2030;DHT22;1020;48.854;8.830;2023-06-10T01:49:12;15.50;7.30
2030;DHT22;1020;48.854;8.830;2023-06-10T01:51:39;15.50;29.50
2030;DHT22;1020;48.854;8.830;2023-06-10T01:54:07;15.50;34.40
2030;DHT22;1020;48.854;8.830;2023-06-10T01:56:34;15.40;42.90
2030;DHT22;1020;48.854;8.830;2023-06-10T01:59:01;15.40;49.70
2030;DHT22;1020;48.854;8.830;2023-06-10T02:01:28;15.40;95.80
2030;DHT22;1020;48.854;8.830;2023-06-10T02:03:55;15.40;99.90
2030;DHT22;1020;48.854;8.830;2023-06-10T02:06:22;15.30;99.90
2030;DHT22;1020;48.854;8.830;2023-06-10T02:08:49;15.30;99.90
2030;DHT22;1020;48.854;8.830;2023-06-10T02:11:17;15.30;99.90
2030;DHT22;1020;48.854;8.830;2023-06-10T02:13:43;15.30;99.90
2030;DHT22;1020;48.854;8.830;2023-06-10T02:16:10;15.20;99.90
2030;DHT22;1020;48.854;8.830;2023-06-10T02:18:38;15.20;99.90
2030;DHT22;1020;48.854;8.830;2023-06-10T02:21:06;15.20;99.90
2030;DHT22;1020;48.854;8.830;2023-06-10T02:23:33;15.10;99.90
2030;DHT22;1020;48.854;8.830;2023-06-10T02:26:00;15.00;99.90
2030;DHT22;1020;48.854;8.830;2023-06-10T02:28:28;15.00;99.90
2030;DHT22;1020;48.854;8.830;2023-06-10T02:30:55;15.00;99.90
2030;DHT22;1020;48.854;8.830;2023-06-10T02:33:23;14.90;99.90
2030;DHT22;1020;48.854;8.830;2023-06-10T02:35:50;14.90;99.90
2030;DHT22;1020;48.854;8.830;2023-06-10T02:38:16;14.90;1.00
2030;DHT22;1020;48.854;8.830;2023-06-10T02:40:43;14.80;1.00
2030;DHT22;1020;48.854;8.830;2023-06-10T02:43:10;14.70;1.00
2030;DHT22;1020;48.854;8.830;2023-06-10T02:45:38;14.60;99.90
2030;DHT22;1020;48.854;8.830;2023-06-10T02:48:06;14.70;99.90
2030;DHT22;1020;48.854;8.830;2023-06-10T02:50:33;14.70;99.90
2030;DHT22;1020;48.854;8.830;2023-06-10T02:53:00;14.70;99.90
2030;DHT22;1020;48.854;8.830;2023-06-10T02:55:27;14.70;21.60
2030;DHT22;1020;48.854;8.830;2023-06-10T02:57:54;14.70;1.00
2030;DHT22;1020;48.854;8.830;2023-06-10T03:00:22;14.70;1.00
2030;DHT22;1020;48.854;8.830;2023-06-10T03:02:50;14.60;1.00
2030;DHT22;1020;48.854;8.830;2023-06-10T03:05:17;14.60;1.00
2030;DHT22;1020;48.854;8.830;2023-06-10T03:07:43;14.60;1.00
2030;DHT22;1020;48.854;8.830;2023-06-10T03:10:12;14.60;1.00
2030;DHT22;1020;48.854;8.830;2023-06-10T03:12:39;14.50;33.60
2030;DHT22;1020;48.854;8.830;2023-06-10T03:15:07;14.50;99.90
2030;DHT22;1020;48.854;8.830;2023-06-10T03:17:33;14.40;99.90
2030;DHT22;1020;48.854;8.830;2023-06-10T03:20:02;14.50;99.90
2030;DHT22;1020;48.854;8.830;2023-06-10T03:22:31;14.50;99.90
2030;DHT22;1020;48.854;8.830;2023-06-10T03:24:57;14.50;99.90
2030;DHT22;1020;48.854;8.830;2023-06-10T03:27:25;14.50;99.90
2030;DHT22;1020;48.854;8.830;2023-06-10T03:29:52;14.50;99.90
2030;DHT22;1020;48.854;8.830;2023-06-10T03:32:19;14.30;99.90
2030;DHT22;1020;48.854;8.830;2023-06-10T03:34:45;14.40;99.90
2030;DHT22;1020;48.854;8.830;2023-06-10T03:37:14;14.30;1.00
2030;DHT22;1020;48.854;8.830;2023-06-10T03:39:41;14.40;1.00
2030;DHT22;1020;48.854;8.830;2023-06-10T03:42:07;14.40;1.00
2030;DHT22;1020;48.854;8.830;2023-06-10T03:44:34;14.40;1.00
2030;DHT22;1020;48.854;8.830;2023-06-10T03:47:01;14.40;1.00
2030;DHT22;1020;48.854;8.830;2023-06-10T03:49:28;14.50;99.90
2030;DHT22;1020;48.854;8.830;2023-06-10T03:51:55;14.40;1.00
2030;DHT22;1020;48.854;8.830;2023-06-10T03:54:23;14.50;1.00
2030;DHT22;1020;48.854;8.830;2023-06-10T03:56:50;14.50;99.90
2030;DHT22;1020;48.854;8.830;2023-06-10T03:59:17;14.60;99.90
2030;DHT22;1020;48.854;8.830;2023-06-10T04:01:44;14.60;99.90
2030;DHT22;1020;48.854;8.830;2023-06-10T04:04:14;14.70;99.90
2030;DHT22;1020;48.854;8.830;2023-06-10T04:06:41;14.70;99.90
2030;DHT22;1020;48.854;8.830;2023-06-10T04:09:09;14.70;99.90
2030;DHT22;1020;48.854;8.830;2023-06-10T04:11:38;14.80;99.90
2030;DHT22;1020;48.854;8.830;2023-06-10T04:14:04;14.80;99.90
2030;DHT22;1020;48.854;8.830;2023-06-10T04:16:31;14.80;99.90
2030;DHT22;1020;48.854;8.830;2023-06-10T04:18:58;15.00;99.90
2030;DHT22;1020;48.854;8.830;2023-06-10T04:21:25;15.00;99.90
2030;DHT22;1020;48.854;8.830;2023-06-10T04:23:52;15.10;99.90
2030;DHT22;1020;48.854;8.830;2023-06-10T04:26:19;15.20;92.20
2030;DHT22;1020;48.854;8.830;2023-06-10T04:28:47;15.30;1.00
2030;DHT22;1020;48.854;8.830;2023-06-10T04:31:14;15.30;1.00
2030;DHT22;1020;48.854;8.830;2023-06-10T04:33:41;15.50;1.00
2030;DHT22;1020;48.854;8.830;2023-06-10T04:36:07;15.60;1.00
2030;DHT22;1020;48.854;8.830;2023-06-10T04:38:34;15.70;1.00
2030;DHT22;1020;48.854;8.830;2023-06-10T04:41:01;15.80;1.00
2030;DHT22;1020;48.854;8.830;2023-06-10T04:43:27;15.90;1.00
2030;DHT22;1020;48.854;8.830;2023-06-10T04:45:56;16.00;99.90
2030;DHT22;1020;48.854;8.830;2023-06-10T04:48:22;16.10;99.90
2030;DHT22;1020;48.854;8.830;2023-06-10T04:50:50;16.10;99.90
2030;DHT22;1020;48.854;8.830;2023-06-10T04:53:17;16.10;99.90
2030;DHT22;1020;48.854;8.830;2023-06-10T04:55:44;16.10;99.90
2030;DHT22;1020;48.854;8.830;2023-06-10T04:58:10;16.20;99.90
2030;DHT22;1020;48.854;8.830;2023-06-10T05:00:37;16.30;99.90
2030;DHT22;1020;48.854;8.830;2023-06-10T05:03:05;16.50;99.90
2030;DHT22;1020;48.854;8.830;2023-06-10T05:05:32;16.60;99.90
2030;DHT22;1020;48.854;8.830;2023-06-10T05:07:59;16.70;99.90
2030;DHT22;1020;48.854;8.830;2023-06-10T05:10:25;16.90;99.90
2030;DHT22;1020;48.854;8.830;2023-06-10T05:12:52;17.00;99.90
2030;DHT22;1020;48.854;8.830;2023-06-10T05:15:19;17.30;99.90
2030;DHT22;1020;48.854;8.830;2023-06-10T05:17:45;17.40;99.90
2030;DHT22;1020;48.854;8.830;2023-06-10T05:20:14;17.40;99.90
2030;DHT22;1020;48.854;8.830;2023-06-10T05:22:41;17.40;99.90
2030;DHT22;1020;48.854;8.830;2023-06-10T05:25:08;17.50;99.90
2030;DHT22;1020;48.854;8.830;2023-06-10T05:27:35;17.60;99.90
2030;DHT22;1020;48.854;8.830;2023-06-10T05:30:02;17.60;99.90
2030;DHT22;1020;48.854;8.830;2023-06-10T05:32:30;17.60;99.90
2030;DHT22;1020;48.854;8.830;2023-06-10T05:34:57;17.70;99.90
2030;DHT22;1020;48.854;8.830;2023-06-10T05:37:26;17.80;99.90
2030;DHT22;1020;48.854;8.830;2023-06-10T05:39:53;18.00;64.60
2030;DHT22;1020;48.854;8.830;2023-06-10T05:42:20;18.20;30.70
2030;DHT22;1020;48.854;8.830;2023-06-10T05:44:47;18.30;1.00
2030;DHT22;1020;48.854;8.830;2023-06-10T05:47:14;18.50;1.00
2030;DHT22;1020;48.854;8.830;2023-06-10T05:49:40;18.60;1.00
2030;DHT22;1020;48.854;8.830;2023-06-10T05:52:07;18.80;1.00
2030;DHT22;1020;48.854;8.830;2023-06-10T05:54:35;18.90;1.00
2030;DHT22;1020;48.854;8.830;2023-06-10T05:57:02;19.00;1.00
2030;DHT22;1020;48.854;8.830;2023-06-10T05:59:31;19.10;1.00
2030;DHT22;1020;48.854;8.830;2023-06-10T06:01:58;19.20;1.00
2030;DHT22;1020;48.854;8.830;2023-06-10T06:04:25;19.40;1.00
2030;DHT22;1020;48.854;8.830;2023-06-10T06:06:52;19.60;1.00
2030;DHT22;1020;48.854;8.830;2023-06-10T06:09:18;19.70;1.00
2030;DHT22;1020;48.854;8.830;2023-06-10T06:11:46;19.90;1.00
2030;DHT22;1020;48.854;8.830;2023-06-10T06:14:13;20.00;1.00
2030;DHT22;1020;48.854;8.830;2023-06-10T06:16:40;20.20;1.00
2030;DHT22;1020;48.854;8.830;2023-06-10T06:19:07;20.20;1.00
2030;DHT22;1020;48.854;8.830;2023-06-10T06:21:35;20.30;1.00
2030;DHT22;1020;48.854;8.830;2023-06-10T06:24:02;20.40;1.00
2030;DHT22;1020;48.854;8.830;2023-06-10T06:26:28;20.40;1.00
2030;DHT22;1020;48.854;8.830;2023-06-10T06:28:56;20.60;1.00
2030;DHT22;1020;48.854;8.830;2023-06-10T06:31:23;20.70;1.00
2030;DHT22;1020;48.854;8.830;2023-06-10T06:33:50;20.80;1.00
2030;DHT22;1020;48.854;8.830;2023-06-10T06:36:17;21.00;1.00
2030;DHT22;1020;48.854;8.830;2023-06-10T06:38:44;21.30;1.00
2030;DHT22;1020;48.854;8.830;2023-06-10T06:41:11;21.30;1.00
2030;DHT22;1020;48.854;8.830;2023-06-10T06:43:37;21.50;1.00
2030;DHT22;1020;48.854;8.830;2023-06-10T06:46:05;21.80;1.00
2030;DHT22;1020;48.854;8.830;2023-06-10T06:48:32;22.10;1.00
2030;DHT22;1020;48.854;8.830;2023-06-10T06:50:59;22.20;1.00
2030;DHT22;1020;48.854;8.830;2023-06-10T06:53:26;22.40;1.00
2030;DHT22;1020;48.854;8.830;2023-06-10T06:55:52;22.50;1.00
2030;DHT22;1020;48.854;8.830;2023-06-10T06:58:19;22.70;99.90
2030;DHT22;1020;48.854;8.830;2023-06-10T07:00:46;22.80;99.90
2030;DHT22;1020;48.854;8.830;2023-06-10T07:03:14;22.80;99.90
2030;DHT22;1020;48.854;8.830;2023-06-10T07:05:41;22.70;99.90
2030;DHT22;1020;48.854;8.830;2023-06-10T07:08:08;22.90;99.90
2030;DHT22;1020;48.854;8.830;2023-06-10T07:10:35;22.80;99.90
2030;DHT22;1020;48.854;8.830;2023-06-10T07:13:02;23.00;99.90
2030;DHT22;1020;48.854;8.830;2023-06-10T07:15:29;23.40;99.90
2030;DHT22;1020;48.854;8.830;2023-06-10T07:17:55;23.50;99.90
2030;DHT22;1020;48.854;8.830;2023-06-10T07:20:24;23.80;99.90
2030;DHT22;1020;48.854;8.830;2023-06-10T07:22:50;24.10;99.90
2030;DHT22;1020;48.854;8.830;2023-06-10T07:25:17;24.40;99.90
2030;DHT22;1020;48.854;8.830;2023-06-10T07:27:44;24.30;99.90
2030;DHT22;1020;48.854;8.830;2023-06-10T07:30:11;24.50;99.90
2030;DHT22;1020;48.854;8.830;2023-06-10T07:32:38;25.10;99.90
2030;DHT22;1020;48.854;8.830;2023-06-10T07:35:09;25.50;99.90
2030;DHT22;1020;48.854;8.830;2023-06-10T07:37:37;25.80;99.90
2030;DHT22;1020;48.854;8.830;2023-06-10T07:40:05;26.50;99.90
2030;DHT22;1020;48.854;8.830;2023-06-10T07:42:34;26.60;99.90
2030;DHT22;1020;48.854;8.830;2023-06-10T07:45:01;27.20;99.90
2030;DHT22;1020;48.854;8.830;2023-06-10T07:47:27;27.70;99.90
2030;DHT22;1020;48.854;8.830;2023-06-10T07:49:54;28.20;99.90
2030;DHT22;1020;48.854;8.830;2023-06-10T07:52:21;29.10;99.90
2030;DHT22;1020;48.854;8.830;2023-06-10T07:54:49;28.20;99.90
2030;DHT22;1020;48.854;8.830;2023-06-10T07:57:16;28.50;99.90
2030;DHT22;1020;48.854;8.830;2023-06-10T07:59:42;29.00;99.90
2030;DHT22;1020;48.854;8.830;2023-06-10T08:02:09;29.40;99.90
2030;DHT22;1020;48.854;8.830;2023-06-10T08:04:36;30.00;99.90
2030;DHT22;1020;48.854;8.830;2023-06-10T08:07:05;29.50;99.90
2030;DHT22;1020;48.854;8.830;2023-06-10T08:09:32;29.40;99.90
2030;DHT22;1020;48.854;8.830;2023-06-10T08:12:00;29.20;99.90
2030;DHT22;1020;48.854;8.830;2023-06-10T08:14:27;28.90;99.90
2030;DHT22;1020;48.854;8.830;2023-06-10T08:16:53;28.40;99.90
2030;DHT22;1020;48.854;8.830;2023-06-10T08:19:20;28.20;99.90
2030;DHT22;1020;48.854;8.830;2023-06-10T08:21:47;27.80;99.90
2030;DHT22;1020;48.854;8.830;2023-06-10T08:24:14;28.20;99.90
2030;DHT22;1020;48.854;8.830;2023-06-10T08:26:43;28.70;99.90
2030;DHT22;1020;48.854;8.830;2023-06-10T08:29:12;29.10;99.90
2030;DHT22;1020;48.854;8.830;2023-06-10T08:31:41;29.40;99.90
2030;DHT22;1020;48.854;8.830;2023-06-10T08:34:08;29.50;99.90
2030;DHT22;1020;48.854;8.830;2023-06-10T08:36:35;29.60;99.90
2030;DHT22;1020;48.854;8.830;2023-06-10T08:39:02;28.30;99.90
2030;DHT22;1020;48.854;8.830;2023-06-10T08:41:31;27.80;99.90
2030;DHT22;1020;48.854;8.830;2023-06-10T08:44:04;27.50;99.90
2030;DHT22;1020;48.854;8.830;2023-06-10T08:46:34;28.00;99.90
2030;DHT22;1020;48.854;8.830;2023-06-10T08:49:05;27.80;99.90
2030;DHT22;1020;48.854;8.830;2023-06-10T08:51:32;28.10;99.90
2030;DHT22;1020;48.854;8.830;2023-06-10T08:54:02;27.60;99.90
2030;DHT22;1020;48.854;8.830;2023-06-10T08:56:31;27.90;99.90
2030;DHT22;1020;48.854;8.830;2023-06-10T08:58:59;28.20;99.90
2030;DHT22;1020;48.854;8.830;2023-06-10T09:01:26;28.40;99.90
2030;DHT22;1020;48.854;8.830;2023-06-10T09:03:55;29.30;99.90
2030;DHT22;1020;48.854;8.830;2023-06-10T09:06:22;29.40;99.90
2030;DHT22;1020;48.854;8.830;2023-06-10T09:08:49;29.30;99.90
2030;DHT22;1020;48.854;8.830;2023-06-10T09:11:16;29.80;99.90
2030;DHT22;1020;48.854;8.830;2023-06-10T09:13:43;29.90;99.90
2030;DHT22;1020;48.854;8.830;2023-06-10T09:16:10;30.10;99.90
2030;DHT22;1020;48.854;8.830;2023-06-10T09:18:38;30.10;99.90
2030;DHT22;1020;48.854;8.830;2023-06-10T09:21:06;29.40;99.90
2030;DHT22;1020;48.854;8.830;2023-06-10T09:23:33;28.10;99.90
2030;DHT22;1020;48.854;8.830;2023-06-10T09:26:00;27.90;99.90
2030;DHT22;1020;48.854;8.830;2023-06-10T09:28:29;28.10;99.90
2030;DHT22;1020;48.854;8.830;2023-06-10T09:31:06;27.70;99.90
2030;DHT22;1020;48.854;8.830;2023-06-10T09:33:37;29.00;99.90
2030;DHT22;1020;48.854;8.830;2023-06-10T09:36:04;29.50;99.90
2030;DHT22;1020;48.854;8.830;2023-06-10T09:38:34;29.00;99.90
2030;DHT22;1020;48.854;8.830;2023-06-10T09:41:01;28.90;99.90
2030;DHT22;1020;48.854;8.830;2023-06-10T09:43:42;29.20;99.90
2030;DHT22;1020;48.854;8.830;2023-06-10T09:46:15;28.70;99.90
2030;DHT22;1020;48.854;8.830;2023-06-10T09:48:43;28.70;99.90
2030;DHT22;1020;48.854;8.830;2023-06-10T09:51:11;29.70;99.90
2030;DHT22;1020;48.854;8.830;2023-06-10T09:53:39;30.50;99.90
2030;DHT22;1020;48.854;8.830;2023-06-10T09:56:06;32.40;99.90
2030;DHT22;1020;48.854;8.830;2023-06-10T09:58:35;32.80;99.90
2030;DHT22;1020;48.854;8.830;2023-06-10T10:01:05;33.20;99.90
2030;DHT22;1020;48.854;8.830;2023-06-10T10:03:32;34.20;99.90
2030;DHT22;1020;48.854;8.830;2023-06-10T10:05:59;34.30;99.90
2030;DHT22;1020;48.854;8.830;2023-06-10T10:08:26;34.00;99.90
2030;DHT22;1020;48.854;8.830;2023-06-10T10:10:56;34.50;99.90
2030;DHT22;1020;48.854;8.830;2023-06-10T10:13:24;33.30;99.90
2030;DHT22;1020;48.854;8.830;2023-06-10T10:15:52;33.70;99.90
2030;DHT22;1020;48.854;8.830;2023-06-10T10:18:20;33.20;99.90
2030;DHT22;1020;48.854;8.830;2023-06-10T10:20:54;32.60;99.90
2030;DHT22;1020;48.854;8.830;2023-06-10T10:23:24;32.00;99.90
2030;DHT22;1020;48.854;8.830;2023-06-10T10:25:55;32.50;99.90
2030;DHT22;1020;48.854;8.830;2023-06-10T10:28:24;33.20;99.90
2030;DHT22;1020;48.854;8.830;2023-06-10T10:30:55;33.90;99.90
2030;DHT22;1020;48.854;8.830;2023-06-10T10:33:31;34.60;99.90
2030;DHT22;1020;48.854;8.830;2023-06-10T10:36:00;34.70;99.90
2030;DHT22;1020;48.854;8.830;2023-06-10T10:38:28;33.70;99.90
2030;DHT22;1020;48.854;8.830;2023-06-10T10:40:56;32.50;99.90
2030;DHT22;1020;48.854;8.830;2023-06-10T10:43:25;33.10;99.90
2030;DHT22;1020;48.854;8.830;2023-06-10T10:45:58;33.50;99.90
2030;DHT22;1020;48.854;8.830;2023-06-10T10:48:26;33.90;99.90
2030;DHT22;1020;48.854;8.830;2023-06-10T10:50:56;33.50;99.90
2030;DHT22;1020;48.854;8.830;2023-06-10T10:53:24;33.20;99.90
2030;DHT22;1020;48.854;8.830;2023-06-10T10:55:59;33.70;99.90
2030;DHT22;1020;48.854;8.830;2023-06-10T10:58:26;34.00;99.90
2030;DHT22;1020;48.854;8.830;2023-06-10T11:00:53;33.10;99.90
2030;DHT22;1020;48.854;8.830;2023-06-10T11:03:21;32.30;99.90
2030;DHT22;1020;48.854;8.830;2023-06-10T11:05:49;32.60;99.90
2030;DHT22;1020;48.854;8.830;2023-06-10T11:08:45;32.90;99.90
2030;DHT22;1020;48.854;8.830;2023-06-10T11:11:18;33.30;99.90
2030;DHT22;1020;48.854;8.830;2023-06-10T11:13:58;32.20;99.90
2030;DHT22;1020;48.854;8.830;2023-06-10T11:16:27;32.30;99.90
2030;DHT22;1020;48.854;8.830;2023-06-10T11:18:54;32.20;99.90
2030;DHT22;1020;48.854;8.830;2023-06-10T11:21:23;32.50;99.90
2030;DHT22;1020;48.854;8.830;2023-06-10T11:23:50;33.30;99.90
2030;DHT22;1020;48.854;8.830;2023-06-10T11:26:21;33.70;99.90
2030;DHT22;1020;48.854;8.830;2023-06-10T11:29:16;33.50;99.90
2030;DHT22;1020;48.854;8.830;2023-06-10T11:31:49;33.00;99.90
2030;DHT22;1020;48.854;8.830;2023-06-10T11:34:22;33.10;99.90
2030;DHT22;1020;48.854;8.830;2023-06-10T11:36:51;33.60;99.90
2030;DHT22;1020;48.854;8.830;2023-06-10T11:39:19;33.30;99.90
2030;DHT22;1020;48.854;8.830;2023-06-10T11:41:47;33.70;99.90
2030;DHT22;1020;48.854;8.830;2023-06-10T11:44:15;33.90;99.90
2030;DHT22;1020;48.854;8.830;2023-06-10T11:46:42;33.10;99.90
2030;DHT22;1020;48.854;8.830;2023-06-10T11:49:09;33.70;99.90
2030;DHT22;1020;48.854;8.830;2023-06-10T11:51:36;34.10;99.90
2030;DHT22;1020;48.854;8.830;2023-06-10T11:54:04;33.50;99.90
2030;DHT22;1020;48.854;8.830;2023-06-10T11:56:32;32.20;99.90
2030;DHT22;1020;48.854;8.830;2023-06-10T11:59:02;33.30;99.90
2030;DHT22;1020;48.854;8.830;2023-06-10T12:01:30;33.70;99.90
2030;DHT22;1020;48.854;8.830;2023-06-10T12:04:06;33.70;99.90
2030;DHT22;1020;48.854;8.830;2023-06-10T12:06:40;33.50;99.90
2030;DHT22;1020;48.854;8.830;2023-06-10T12:09:17;33.80;99.90
2030;DHT22;1020;48.854;8.830;2023-06-10T12:11:44;33.10;99.90
2030;DHT22;1020;48.854;8.830;2023-06-10T12:14:12;32.00;99.90
2030;DHT22;1020;48.854;8.830;2023-06-10T12:16:38;32.50;99.90
2030;DHT22;1020;48.854;8.830;2023-06-10T12:19:06;31.80;99.90
2030;DHT22;1020;48.854;8.830;2023-06-10T12:21:36;32.50;99.90
2030;DHT22;1020;48.854;8.830;2023-06-10T12:24:08;32.90;99.90
2030;DHT22;1020;48.854;8.830;2023-06-10T12:26:36;34.30;99.90
2030;DHT22;1020;48.854;8.830;2023-06-10T12:29:16;35.50;99.90
2030;DHT22;1020;48.854;8.830;2023-06-10T12:32:01;36.80;99.90
2030;DHT22;1020;48.854;8.830;2023-06-10T12:34:34;37.00;99.90
2030;DHT22;1020;48.854;8.830;2023-06-10T12:37:02;37.80;99.90
2030;DHT22;1020;48.854;8.830;2023-06-10T12:39:30;38.30;99.90
2030;DHT22;1020;48.854;8.830;2023-06-10T12:41:57;38.10;99.90
2030;DHT22;1020;48.854;8.830;2023-06-10T12:44:31;37.40;99.90
2030;DHT22;1020;48.854;8.830;2023-06-10T12:46:58;36.70;99.90
2030;DHT22;1020;48.854;8.830;2023-06-10T12:49:25;36.10;99.90
2030;DHT22;1020;48.854;8.830;2023-06-10T12:51:53;35.50;99.90
2030;DHT22;1020;48.854;8.830;2023-06-10T12:54:20;35.10;99.90
2030;DHT22;1020;48.854;8.830;2023-06-10T12:56:47;34.80;99.90
2030;DHT22;1020;48.854;8.830;2023-06-10T12:59:14;35.20;99.90
2030;DHT22;1020;48.854;8.830;2023-06-10T13:01:41;35.50;99.90
2030;DHT22;1020;48.854;8.830;2023-06-10T13:04:07;35.60;99.90
2030;DHT22;1020;48.854;8.830;2023-06-10T13:06:35;35.50;99.90
2030;DHT22;1020;48.854;8.830;2023-06-10T13:09:05;35.60;99.90
2030;DHT22;1020;48.854;8.830;2023-06-10T13:11:33;35.70;99.90
2030;DHT22;1020;48.854;8.830;2023-06-10T13:14:00;35.90;99.90
2030;DHT22;1020;48.854;8.830;2023-06-10T13:16:27;36.00;99.90
2030;DHT22;1020;48.854;8.830;2023-06-10T13:18:55;36.00;99.90
2030;DHT22;1020;48.854;8.830;2023-06-10T13:21:21;35.90;99.90
2030;DHT22;1020;48.854;8.830;2023-06-10T13:23:48;35.10;99.90
2030;DHT22;1020;48.854;8.830;2023-06-10T13:26:17;34.30;99.90
2030;DHT22;1020;48.854;8.830;2023-06-10T13:28:44;33.80;99.90
2030;DHT22;1020;48.854;8.830;2023-06-10T13:31:11;34.20;99.90
2030;DHT22;1020;48.854;8.830;2023-06-10T13:33:38;34.20;99.90
2030;DHT22;1020;48.854;8.830;2023-06-10T13:36:05;34.50;99.90
2030;DHT22;1020;48.854;8.830;2023-06-10T13:38:32;34.90;99.90
2030;DHT22;1020;48.854;8.830;2023-06-10T13:40:59;34.40;99.90
2030;DHT22;1020;48.854;8.830;2023-06-10T13:43:28;35.20;99.90
2030;DHT22;1020;48.854;8.830;2023-06-10T13:45:55;35.30;99.90
2030;DHT22;1020;48.854;8.830;2023-06-10T13:48:22;34.80;99.90
2030;DHT22;1020;48.854;8.830;2023-06-10T13:50:49;34.60;99.90
2030;DHT22;1020;48.854;8.830;2023-06-10T13:53:15;34.50;99.90
2030;DHT22;1020;48.854;8.830;2023-06-10T13:55:42;34.80;99.90
2030;DHT22;1020;48.854;8.830;2023-06-10T13:58:09;35.50;99.90
2030;DHT22;1020;48.854;8.830;2023-06-10T14:00:37;36.30;99.90
2030;DHT22;1020;48.854;8.830;2023-06-10T14:03:04;36.40;99.90
2030;DHT22;1020;48.854;8.830;2023-06-10T14:05:30;35.90;99.90
2030;DHT22;1020;48.854;8.830;2023-06-10T14:07:58;35.30;99.90
2030;DHT22;1020;48.854;8.830;2023-06-10T14:10:25;35.20;99.90
2030;DHT22;1020;48.854;8.830;2023-06-10T14:12:52;35.30;99.90
2030;DHT22;1020;48.854;8.830;2023-06-10T14:15:19;35.50;99.90
2030;DHT22;1020;48.854;8.830;2023-06-10T14:17:47;35.70;99.90
2030;DHT22;1020;48.854;8.830;2023-06-10T14:20:14;35.70;99.90
2030;DHT22;1020;48.854;8.830;2023-06-10T14:22:40;35.90;99.90
2030;DHT22;1020;48.854;8.830;2023-06-10T14:25:07;35.50;99.90
2030;DHT22;1020;48.854;8.830;2023-06-10T14:27:35;34.90;99.90
2030;DHT22;1020;48.854;8.830;2023-06-10T14:30:02;35.10;99.90
2030;DHT22;1020;48.854;8.830;2023-06-10T14:32:30;35.70;99.90
2030;DHT22;1020;48.854;8.830;2023-06-10T14:34:58;35.60;99.90
2030;DHT22;1020;48.854;8.830;2023-06-10T14:37:24;35.40;99.90
2030;DHT22;1020;48.854;8.830;2023-06-10T14:39:51;35.30;99.90
2030;DHT22;1020;48.854;8.830;2023-06-10T14:42:18;35.00;99.90
2030;DHT22;1020;48.854;8.830;2023-06-10T14:44:45;34.80;99.90
2030;DHT22;1020;48.854;8.830;2023-06-10T14:47:12;34.50;99.90
2030;DHT22;1020;48.854;8.830;2023-06-10T14:49:38;33.90;99.90
2030;DHT22;1020;48.854;8.830;2023-06-10T14:52:09;33.00;99.90
2030;DHT22;1020;48.854;8.830;2023-06-10T14:54:35;32.50;99.90
2030;DHT22;1020;48.854;8.830;2023-06-10T14:57:02;32.00;99.90
2030;DHT22;1020;48.854;8.830;2023-06-10T14:59:29;32.30;99.90
2030;DHT22;1020;48.854;8.830;2023-06-10T15:01:56;32.10;99.90
2030;DHT22;1020;48.854;8.830;2023-06-10T15:04:22;32.30;99.90
2030;DHT22;1020;48.854;8.830;2023-06-10T15:06:49;32.60;99.90
2030;DHT22;1020;48.854;8.830;2023-06-10T15:09:17;32.90;99.90
2030;DHT22;1020;48.854;8.830;2023-06-10T15:11:44;33.00;99.90
2030;DHT22;1020;48.854;8.830;2023-06-10T15:14:12;32.80;99.90
2030;DHT22;1020;48.854;8.830;2023-06-10T15:16:38;32.50;99.90
2030;DHT22;1020;48.854;8.830;2023-06-10T15:19:05;32.30;99.90
2030;DHT22;1020;48.854;8.830;2023-06-10T15:21:33;32.20;99.90
2030;DHT22;1020;48.854;8.830;2023-06-10T15:24:00;32.30;99.90
2030;DHT22;1020;48.854;8.830;2023-06-10T15:26:28;32.50;99.90
2030;DHT22;1020;48.854;8.830;2023-06-10T15:28:55;32.20;99.90
2030;DHT22;1020;48.854;8.830;2023-06-10T15:31:22;32.50;99.90
2030;DHT22;1020;48.854;8.830;2023-06-10T15:33:49;32.50;99.90
2030;DHT22;1020;48.854;8.830;2023-06-10T15:36:16;32.60;99.90
2030;DHT22;1020;48.854;8.830;2023-06-10T15:38:42;32.50;99.90
2030;DHT22;1020;48.854;8.830;2023-06-10T15:41:09;32.70;99.90
2030;DHT22;1020;48.854;8.830;2023-06-10T15:43:37;32.80;99.90
2030;DHT22;1020;48.854;8.830;2023-06-10T15:46:04;32.70;99.90
2030;DHT22;1020;48.854;8.830;2023-06-10T15:48:30;32.40;99.90
2030;DHT22;1020;48.854;8.830;2023-06-10T15:50:57;32.10;99.90
2030;DHT22;1020;48.854;8.830;2023-06-10T15:53:24;32.10;99.90
2030;DHT22;1020;48.854;8.830;2023-06-10T15:55:50;32.70;99.90
2030;DHT22;1020;48.854;8.830;2023-06-10T15:58:17;32.10;99.90
2030;DHT22;1020;48.854;8.830;2023-06-10T16:00:45;32.20;99.90
2030;DHT22;1020;48.854;8.830;2023-06-10T16:03:12;32.10;99.90
2030;DHT22;1020;48.854;8.830;2023-06-10T16:05:39;32.30;99.90
2030;DHT22;1020;48.854;8.830;2023-06-10T16:08:05;32.00;99.90